Zakynthos — ZDJW8 — position and weather

sailwx.info

Track history (hours):
 
Tides and Currents Weather Stations Pressure Air Temp Water Temp Dewpoint Dewpoint Depression Visibility Wind Speed Wind Dir Waves Ship Positions

Zakynthos

Last reported at 2017-Nov-25 11:29 UTC. Time now 2017-Nov-25 11:32 UTC.
Position N 28°08' W 015°25'.

Length 102 m; draft 5.2 m.

Type: Tanker. MMSI: 236575000.

Date/timePositionNaut miles runAvg speedWind from/ knotsBaromVisibWave heightAir tempDewpointWater temp
2017-Nov-25 11:29N 28°08' W 015°25'0 0.0
2017-Nov-25 10:56N 28°08' W 015°25'0 0.0
2017-Nov-25 10:29N 28°08' W 015°25'0 0.2
2017-Nov-25 10:00N 28°08' W 015°25'2 4.4
2017-Nov-25 09:30N 28°06' W 015°24'0 0.1
2017-Nov-25 08:49N 28°06' W 015°24'0 0.1
2017-Nov-25 08:19N 28°06' W 015°24'0 0.2
2017-Nov-25 07:52N 28°06' W 015°24'0 0.0
2017-Nov-25 07:22N 28°06' W 015°24'0 0.0
2017-Nov-25 06:52N 28°06' W 015°24'0 0.0
2017-Nov-25 06:22N 28°06' W 015°24'0 0.1
2017-Nov-25 06:00N 28°06' W 015°24'0 0.0
2017-Nov-25 05:30N 28°06' W 015°24'0 0.1
2017-Nov-25 05:00N 28°06' W 015°24'2 4.2
2017-Nov-25 04:30N 28°08' W 015°25'0 0.0
2017-Nov-25 03:49N 28°08' W 015°25'0 0.0
2017-Nov-25 03:22N 28°08' W 015°25'0 0.0
2017-Nov-25 02:52N 28°08' W 015°25'0 0.0
2017-Nov-25 02:22N 28°08' W 015°25'0 0.0
2017-Nov-25 01:52N 28°08' W 015°25'0 0.0
2017-Nov-25 01:22N 28°08' W 015°25'0 0.0
2017-Nov-25 00:55N 28°08' W 015°25'0 0.0
2017-Nov-25 00:25N 28°08' W 015°25'0 0.0
2017-Nov-24 23:55N 28°08' W 015°25'0 0.0
2017-Nov-24 23:25N 28°08' W 015°25'0 0.0
2017-Nov-24 22:55N 28°08' W 015°25'0 0.0
2017-Nov-24 22:25N 28°08' W 015°25'0 0.0
2017-Nov-24 21:58N 28°08' W 015°25'0 0.0
2017-Nov-24 21:28N 28°08' W 015°25'0 0.0
2017-Nov-24 20:58N 28°08' W 015°25'1 2.5
2017-Nov-24 20:31N 28°07' W 015°25'3 5.1
2017-Nov-24 20:00N 28°10' W 015°23'0 0.0
2017-Nov-24 19:28N 28°10' W 015°23'0 0.0
2017-Nov-24 18:58N 28°10' W 015°23'0 0.0
2017-Nov-24 18:19N 28°10' W 015°23'0 0.1
2017-Nov-24 17:58N 28°10' W 015°24'0 0.1
2017-Nov-24 17:28N 28°10' W 015°23'0 0.0
2017-Nov-24 16:49N 28°10' W 015°23'0 0.0
2017-Nov-24 16:19N 28°10' W 015°23'0 0.0
2017-Nov-24 15:49N 28°10' W 015°23'0 0.0
2017-Nov-24 15:22N 28°10' W 015°23'0 0.0
2017-Nov-24 14:52N 28°10' W 015°23'0 0.0
2017-Nov-24 14:22N 28°10' W 015°24'0 0.0
2017-Nov-24 13:52N 28°10' W 015°24'0 0.0
2017-Nov-24 13:22N 28°10' W 015°24'0 0.0
2017-Nov-24 12:52N 28°10' W 015°24'0 0.0
2017-Nov-24 12:19N 28°10' W 015°24'0 0.0
2017-Nov-24 11:55N 28°10' W 015°24'0 0.0
2017-Nov-24 11:27N 28°10' W 015°24'0 0.0
2017-Nov-24 10:59N 28°10' W 015°24'1 1.6
2017-Nov-24 10:30N 28°09' W 015°24'3 5.7
2017-Nov-24 10:00N 28°06' W 015°24'0 0.0
2017-Nov-24 09:30N 28°06' W 015°24'0 0.0
2017-Nov-24 09:00N 28°06' W 015°24'0 0.0
2017-Nov-24 08:30N 28°06' W 015°24'0 0.1
2017-Nov-24 08:00N 28°06' W 015°24'0 0.1
2017-Nov-24 07:30N 28°06' W 015°24'0 0.2
2017-Nov-24 07:00N 28°06' W 015°24'0 0.1
2017-Nov-24 06:30N 28°06' W 015°24'0 0.1
2017-Nov-24 06:00N 28°06' W 015°24'0 0.1
2017-Nov-24 05:30N 28°06' W 015°24'3 5.2
2017-Nov-24 05:01N 28°08' W 015°25'0 0.2
2017-Nov-24 04:30N 28°08' W 015°25'0 0.0
2017-Nov-24 04:00N 28°08' W 015°25'0 0.0
2017-Nov-24 03:30N 28°08' W 015°25'0 0.0
2017-Nov-24 03:00N 28°08' W 015°25'0 0.0
2017-Nov-24 02:15N 28°08' W 015°25'0 0.0
2017-Nov-24 01:48N 28°08' W 015°25'0 0.0
2017-Nov-24 01:30N 28°08' W 015°25'0 0.0
2017-Nov-24 01:00N 28°08' W 015°25'0 0.0
2017-Nov-24 00:30N 28°08' W 015°25'0 0.0
2017-Nov-24 00:00N 28°08' W 015°25'0 0.0
2017-Nov-23 23:21N 28°08' W 015°25'0 0.0
2017-Nov-23 22:51N 28°08' W 015°25'0 0.0
2017-Nov-23 22:21N 28°08' W 015°25'0 0.0
2017-Nov-23 21:54N 28°08' W 015°25'0 0.0
2017-Nov-23 21:24N 28°08' W 015°25'0 0.0
2017-Nov-23 21:00N 28°08' W 015°25'2 4.7
2017-Nov-23 20:30N 28°06' W 015°24'0 0.0
2017-Nov-23 20:00N 28°06' W 015°24'0 0.0
2017-Nov-23 19:30N 28°06' W 015°24'0 0.1
2017-Nov-23 19:00N 28°06' W 015°24'0 0.0
2017-Nov-23 18:30N 28°06' W 015°24'0 0.0
2017-Nov-23 17:58N 28°06' W 015°24'0 0.0
2017-Nov-23 17:30N 28°06' W 015°24'0 0.0
2017-Nov-23 17:00N 28°06' W 015°24'0 0.0
2017-Nov-23 16:30N 28°06' W 015°24'1 2.5
2017-Nov-23 16:00N 28°07' W 015°25'1 3.0
2017-Nov-23 15:30N 28°09' W 015°25'0 0.0
2017-Nov-23 15:00N 28°09' W 015°25'0 0.0
2017-Nov-23 14:20N 28°09' W 015°25'0 0.0
2017-Nov-23 13:53N 28°09' W 015°25'0 0.0
2017-Nov-23 13:23N 28°09' W 015°25'0 0.0
2017-Nov-23 12:53N 28°09' W 015°25'0 0.0
2017-Nov-23 12:23N 28°09' W 015°25'0 0.0
2017-Nov-23 11:53N 28°09' W 015°25'0 0.0
2017-Nov-23 11:26N 28°09' W 015°25'0 0.0
2017-Nov-23 10:56N 28°09' W 015°25'0 0.0
2017-Nov-23 10:26N 28°09' W 015°25'0 0.0
2017-Nov-23 09:56N 28°09' W 015°25'0 0.0
2017-Nov-23 09:26N 28°09' W 015°25'0 0.0
2017-Nov-23 08:41N 28°09' W 015°25'0 0.0
2017-Nov-23 08:29N 28°09' W 015°25'0 0.6
2017-Nov-23 08:01N 28°08' W 015°25'1 2.6
2017-Nov-23 07:30N 28°07' W 015°25'0 0.9
2017-Nov-23 06:57N 28°07' W 015°24'0 0.1
2017-Nov-23 06:27N 28°07' W 015°24'0 0.1
2017-Nov-23 05:57N 28°07' W 015°24'0 0.1
2017-Nov-23 05:27N 28°07' W 015°24'0 0.0
2017-Nov-23 05:00N 28°07' W 015°24'0 0.1
2017-Nov-23 04:30N 28°07' W 015°24'0 0.1
2017-Nov-23 04:00N 28°07' W 015°24'0 0.0
2017-Nov-23 03:30N 28°07' W 015°24'0 0.0
2017-Nov-23 03:00N 28°07' W 015°24'0 0.0
2017-Nov-23 02:30N 28°07' W 015°24'0 0.0
2017-Nov-23 02:00N 28°07' W 015°24'0 0.1
2017-Nov-23 01:30N 28°07' W 015°24'0 0.3
2017-Nov-23 01:00N 28°07' W 015°24'2 4.0
2017-Nov-23 00:30N 28°09' W 015°25'0 0.0
2017-Nov-23 00:00N 28°09' W 015°25'0 0.0
2017-Nov-22 23:30N 28°09' W 015°25'0 0.0
2017-Nov-22 23:00N 28°09' W 015°25'0 0.0
2017-Nov-22 22:30N 28°09' W 015°25'0 0.0
2017-Nov-22 22:00N 28°09' W 015°25'0 0.0
2017-Nov-22 21:30N 28°09' W 015°25'0 0.0
2017-Nov-22 21:00N 28°09' W 015°25'0 0.0
2017-Nov-22 20:30N 28°09' W 015°25'0 0.0
2017-Nov-22 19:51N 28°09' W 015°25'0 0.0
2017-Nov-22 19:18N 28°09' W 015°25'  
2017-Nov-20 00:28N 28°08' W 015°25'0 0.0
2017-Nov-19 23:58N 28°08' W 015°25'0 0.0
2017-Nov-19 23:28N 28°08' W 015°25'0 0.0
2017-Nov-19 22:58N 28°08' W 015°25'0 0.0
2017-Nov-19 22:28N 28°08' W 015°25'0 0.0
2017-Nov-19 21:49N 28°08' W 015°25'0 0.0
2017-Nov-19 21:19N 28°08' W 015°25'0 0.0
2017-Nov-19 20:52N 28°08' W 015°25'0 0.0
2017-Nov-19 20:19N 28°08' W 015°25'0 0.0
2017-Nov-19 19:52N 28°08' W 015°25'0 0.0
2017-Nov-19 19:22N 28°08' W 015°25'0 0.0
2017-Nov-19 18:52N 28°08' W 015°25'0 0.0
2017-Nov-19 18:22N 28°08' W 015°25'0 0.0
2017-Nov-19 17:55N 28°08' W 015°25'0 0.0
2017-Nov-19 17:25N 28°08' W 015°25'0 0.0
2017-Nov-19 16:55N 28°08' W 015°25'0 0.0
2017-Nov-19 16:25N 28°08' W 015°25'0 0.0
2017-Nov-19 16:00N 28°08' W 015°25'1 2.6
2017-Nov-19 15:30N 28°08' W 015°24'1 1.7
2017-Nov-19 14:56N 28°09' W 015°24'0 0.0
2017-Nov-19 14:26N 28°09' W 015°24'0 0.0
2017-Nov-19 13:59N 28°09' W 015°24'0 0.0
2017-Nov-19 13:29N 28°09' W 015°24'0 0.0
2017-Nov-19 12:59N 28°09' W 015°24'0 0.0
2017-Nov-19 12:29N 28°09' W 015°24'0 0.0
2017-Nov-19 11:59N 28°09' W 015°24'0 0.0
2017-Nov-19 11:29N 28°09' W 015°24'0 0.0
2017-Nov-19 11:00N 28°09' W 015°24'2 4.1
2017-Nov-19 10:30N 28°07' W 015°25'1 2.1
2017-Nov-19 09:49N 28°09' W 015°25'0 0.0
2017-Nov-19 09:19N 28°09' W 015°25'0 0.0
2017-Nov-19 08:52N 28°09' W 015°25'0 0.0
2017-Nov-19 08:22N 28°09' W 015°25'0 0.0
2017-Nov-19 07:52N 28°09' W 015°25'0 0.0
2017-Nov-19 07:22N 28°09' W 015°25'0 0.0
2017-Nov-19 06:52N 28°09' W 015°25'0 0.0
2017-Nov-19 06:22N 28°09' W 015°25'0 0.0
2017-Nov-19 05:55N 28°09' W 015°25'0 0.0
2017-Nov-19 05:25N 28°09' W 015°25'0 0.0
2017-Nov-19 04:55N 28°09' W 015°25'0 0.0
2017-Nov-19 04:25N 28°09' W 015°25'0 0.0
2017-Nov-19 03:55N 28°09' W 015°25'0 0.0
2017-Nov-19 03:25N 28°09' W 015°25'0 0.0
2017-Nov-19 02:58N 28°09' W 015°25'0 0.0
2017-Nov-19 02:28N 28°09' W 015°25'0 0.0
2017-Nov-19 01:58N 28°09' W 015°25'0 0.0
2017-Nov-19 01:28N 28°09' W 015°25'0 0.0
2017-Nov-19 00:58N 28°09' W 015°25'0 0.0
2017-Nov-19 00:28N 28°09' W 015°25'0 0.0
2017-Nov-18 23:58N 28°09' W 015°25'0 0.0
2017-Nov-18 23:28N 28°09' W 015°25'0 0.0
2017-Nov-18 22:58N 28°09' W 015°25'0 0.0
2017-Nov-18 22:28N 28°09' W 015°25'0 0.0
2017-Nov-18 21:58N 28°09' W 015°25'0 0.0
2017-Nov-18 21:28N 28°09' W 015°25'0 0.0
2017-Nov-18 20:58N 28°09' W 015°25'0 0.0
2017-Nov-18 20:28N 28°09' W 015°25'0 0.0
2017-Nov-18 19:49N 28°09' W 015°25'0 0.0
2017-Nov-18 19:19N 28°09' W 015°25'0 0.0
2017-Nov-18 18:49N 28°09' W 015°25'0 0.0
2017-Nov-18 18:22N 28°09' W 015°25'0 0.0
2017-Nov-18 17:52N 28°09' W 015°25'0 0.0
2017-Nov-18 17:22N 28°09' W 015°25'0 0.0
2017-Nov-18 16:52N 28°09' W 015°25'0 0.0
2017-Nov-18 16:22N 28°09' W 015°25'0 0.0
2017-Nov-18 15:52N 28°09' W 015°25'0 0.0
2017-Nov-18 15:25N 28°09' W 015°25'0 0.0
2017-Nov-18 14:55N 28°09' W 015°25'0 0.0
2017-Nov-18 14:25N 28°09' W 015°25'0 0.0
2017-Nov-18 14:00N 28°09' W 015°25'0 0.9
2017-Nov-18 13:30N 28°08' W 015°25'0 0.0
2017-Nov-18 12:57N 28°08' W 015°25'0 0.0
2017-Nov-18 12:30N 28°08' W 015°25'0 0.0
2017-Nov-18 11:57N 28°08' W 015°25'0 0.0
2017-Nov-18 11:27N 28°08' W 015°25'1 3.1
2017-Nov-18 11:00N 28°07' W 015°24'1 1.6
2017-Nov-18 10:28N 28°08' W 015°24'0 0.0
2017-Nov-18 09:58N 28°08' W 015°24'0 0.0
2017-Nov-18 09:13N 28°08' W 015°24'0 0.0
2017-Nov-18 08:58N 28°08' W 015°24'0 0.0
2017-Nov-18 08:13N 28°08' W 015°24'0 0.0
2017-Nov-18 07:58N 28°08' W 015°24'0 0.0
2017-Nov-18 07:28N 28°08' W 015°24'0 0.0
2017-Nov-18 06:58N 28°08' W 015°24'0 0.1
2017-Nov-18 06:28N 28°08' W 015°24'0 0.0
2017-Nov-18 05:46N 28°08' W 015°24'0 0.0
2017-Nov-18 05:19N 28°08' W 015°24'0 0.0
2017-Nov-18 04:46N 28°08' W 015°24'0 0.0
2017-Nov-18 04:22N 28°08' W 015°24'0 0.0
2017-Nov-18 03:56N 28°08' W 015°24'1 1.9
2017-Nov-18 03:30N 28°07' W 015°24'1 2.7
2017-Nov-18 03:00N 28°08' W 015°25'0 0.0
2017-Nov-18 02:30N 28°08' W 015°25'0 0.0
2017-Nov-18 02:00N 28°08' W 015°25'0 0.0
2017-Nov-18 01:30N 28°08' W 015°25'0 0.0
2017-Nov-18 01:00N 28°08' W 015°25'0 0.0
2017-Nov-18 00:30N 28°08' W 015°25'0 0.0
2017-Nov-18 00:00N 28°08' W 015°25'0 0.0
2017-Nov-17 23:30N 28°08' W 015°25'0 0.0
2017-Nov-17 23:00N 28°08' W 015°25'0 0.0
2017-Nov-17 22:30N 28°08' W 015°25'0 0.0
2017-Nov-17 22:00N 28°08' W 015°25'0 0.0
2017-Nov-17 21:18N 28°08' W 015°25'0 0.0
2017-Nov-17 20:48N 28°08' W 015°25'0 0.0
2017-Nov-17 20:21N 28°08' W 015°25'0 0.0
2017-Nov-17 19:54N 28°08' W 015°25'0 0.0
2017-Nov-17 19:24N 28°08' W 015°25'0 0.0
2017-Nov-17 18:56N 28°08' W 015°25'1 1.8
2017-Nov-17 18:30N 28°07' W 015°25'1 2.1
2017-Nov-17 18:01N 28°07' W 015°24'0 0.1
2017-Nov-17 17:31N 28°07' W 015°24'0 0.0
2017-Nov-17 17:01N 28°07' W 015°24'0 0.0
2017-Nov-17 16:31N 28°07' W 015°24'0 0.1
2017-Nov-17 16:01N 28°07' W 015°24'0 0.0
2017-Nov-17 15:31N 28°07' W 015°24'0 0.0
2017-Nov-17 15:01N 28°07' W 015°24'0 0.0
2017-Nov-17 14:31N 28°07' W 015°24'0 0.1
2017-Nov-17 14:01N 28°07' W 015°24'0 0.0
2017-Nov-17 13:22N 28°07' W 015°24'0 0.0
2017-Nov-17 12:52N 28°07' W 015°24'0 0.0
2017-Nov-17 12:22N 28°07' W 015°24'0 0.0
2017-Nov-17 11:55N 28°07' W 015°24'0 0.1
2017-Nov-17 11:30N 28°07' W 015°24'2 3.9
2017-Nov-17 11:00N 28°09' W 015°25'0 0.1
2017-Nov-17 10:29N 28°09' W 015°25'0 0.0
2017-Nov-17 09:59N 28°09' W 015°25'0 0.0
2017-Nov-17 09:29N 28°09' W 015°25'0 0.0
2017-Nov-17 08:59N 28°09' W 015°25'0 0.0
2017-Nov-17 08:20N 28°09' W 015°25'0 0.0
2017-Nov-17 07:50N 28°09' W 015°25'0 0.0
2017-Nov-17 07:20N 28°09' W 015°25'0 0.0
2017-Nov-17 06:53N 28°09' W 015°25'0 0.0
2017-Nov-17 06:23N 28°09' W 015°25'0 0.0
2017-Nov-17 05:53N 28°09' W 015°25'0 0.0
2017-Nov-17 05:23N 28°09' W 015°25'0 0.0
2017-Nov-17 04:53N 28°09' W 015°25'0 0.0
2017-Nov-17 04:23N 28°09' W 015°25'0 0.0
2017-Nov-17 03:56N 28°09' W 015°25'0 0.0
2017-Nov-17 03:26N 28°09' W 015°25'0 0.0
2017-Nov-17 02:56N 28°09' W 015°25'0 0.0
2017-Nov-17 02:26N 28°09' W 015°25'0 0.0
2017-Nov-17 01:56N 28°09' W 015°25'0 0.0
2017-Nov-17 01:26N 28°09' W 015°25'0 0.0
2017-Nov-17 00:59N 28°09' W 015°25'0 0.0
2017-Nov-17 00:29N 28°09' W 015°25'0 0.0
2017-Nov-16 23:59N 28°09' W 015°25'0 0.0
2017-Nov-16 23:29N 28°09' W 015°25'0 0.0
2017-Nov-16 22:59N 28°09' W 015°25'0 0.0
2017-Nov-16 22:29N 28°09' W 015°25'0 0.0
2017-Nov-16 21:59N 28°09' W 015°25'0 0.0
2017-Nov-16 21:29N 28°09' W 015°25'0 0.0
2017-Nov-16 20:59N 28°09' W 015°25'0 0.0
2017-Nov-16 20:29N 28°09' W 015°25'0 0.0
2017-Nov-16 19:59N 28°09' W 015°25'0 0.0
2017-Nov-16 19:20N 28°09' W 015°25'0 0.0
2017-Nov-16 18:59N 28°09' W 015°25'0 0.0
2017-Nov-16 18:29N 28°09' W 015°25'0 0.0
2017-Nov-16 17:50N 28°09' W 015°25'0 0.0
2017-Nov-16 17:20N 28°09' W 015°25'0 0.0
2017-Nov-16 16:50N 28°09' W 015°25'0 0.0
2017-Nov-16 16:23N 28°09' W 015°25'0 0.0
2017-Nov-16 15:53N 28°09' W 015°25'0 0.0
2017-Nov-16 15:23N 28°09' W 015°25'0 0.0
2017-Nov-16 14:53N 28°09' W 015°25'0 0.0
2017-Nov-16 14:23N 28°09' W 015°25'0 0.0
2017-Nov-16 13:56N 28°09' W 015°25'0 0.0
2017-Nov-16 13:23N 28°09' W 015°25'0 0.0
2017-Nov-16 12:56N 28°09' W 015°25'0 0.0
2017-Nov-16 12:26N 28°09' W 015°25'0 0.0
2017-Nov-16 11:56N 28°09' W 015°25'0 0.0
2017-Nov-16 11:26N 28°09' W 015°25'0 0.0
2017-Nov-16 10:59N 28°09' W 015°25'0 0.7
2017-Nov-16 10:21N 28°08' W 015°25'0 0.0
2017-Nov-16 09:54N 28°08' W 015°25'0 0.0
2017-Nov-16 09:24N 28°08' W 015°25'0 0.0
2017-Nov-16 08:54N 28°08' W 015°25'0 0.0
2017-Nov-16 08:24N 28°08' W 015°25'0 0.0
2017-Nov-16 07:54N 28°08' W 015°25'0 0.0
2017-Nov-16 07:24N 28°08' W 015°25'0 0.0
2017-Nov-16 06:57N 28°08' W 015°25'0 0.0
2017-Nov-16 06:27N 28°08' W 015°25'0 0.0
2017-Nov-16 05:57N 28°08' W 015°25'0 0.0
2017-Nov-16 05:27N 28°08' W 015°25'0 0.0
2017-Nov-16 04:57N 28°08' W 015°25'0 0.0
2017-Nov-16 04:27N 28°08' W 015°25'0 0.0
2017-Nov-16 03:57N 28°08' W 015°25'0 0.0
2017-Nov-16 03:30N 28°08' W 015°25'0 0.0
2017-Nov-16 02:57N 28°08' W 015°25'0 0.0
2017-Nov-16 02:30N 28°08' W 015°25'0 0.0
2017-Nov-16 02:00N 28°08' W 015°25'0 0.0
2017-Nov-16 01:30N 28°08' W 015°25'0 0.0
2017-Nov-16 01:00N 28°08' W 015°25'0 0.0
2017-Nov-16 00:27N 28°08' W 015°25'0 0.0
2017-Nov-16 00:00N 28°08' W 015°25'0 0.0
2017-Nov-15 23:30N 28°08' W 015°25'0 0.0
2017-Nov-15 23:00N 28°08' W 015°25'0 0.0
2017-Nov-15 22:30N 28°08' W 015°25'0 0.0
2017-Nov-15 22:00N 28°08' W 015°25'0 0.0
2017-Nov-15 21:30N 28°08' W 015°25'0 0.0
2017-Nov-15 20:36N 28°08' W 015°25'0 0.0
2017-Nov-15 20:21N 28°08' W 015°25'0 0.0
2017-Nov-15 19:51N 28°08' W 015°25'0 0.0
2017-Nov-15 19:24N 28°08' W 015°25'0 0.0
2017-Nov-15 18:51N 28°08' W 015°25'0 0.0
2017-Nov-15 18:24N 28°08' W 015°25'0 0.0
2017-Nov-15 17:54N 28°08' W 015°25'0 0.0
2017-Nov-15 17:21N 28°08' W 015°25'0 0.0
2017-Nov-15 16:54N 28°08' W 015°25'0 0.0
2017-Nov-15 16:27N 28°08' W 015°25'0 0.0
2017-Nov-15 15:57N 28°08' W 015°25'0 0.0
2017-Nov-15 15:27N 28°08' W 015°25'0 0.0
2017-Nov-15 14:57N 28°08' W 015°25'0 0.0
2017-Nov-15 14:27N 28°08' W 015°25'0 0.0
2017-Nov-15 13:57N 28°08' W 015°25'0 0.0
2017-Nov-15 13:30N 28°08' W 015°25'0 0.0
2017-Nov-15 13:00N 28°08' W 015°25'0 0.0
2017-Nov-15 12:30N 28°08' W 015°25'0 0.0
2017-Nov-15 12:00N 28°08' W 015°25'  
Track history (hours):
 
Tides and Currents Weather Stations Pressure Air Temp Water Temp Dewpoint Dewpoint Depression Visibility Wind Speed Wind Dir Waves Ship Positions

Zakynthos

Last reported at 2017-Nov-25 11:29 UTC. Time now 2017-Nov-25 11:32 UTC.
Position N 28°08' W 015°25'.

Length 102 m; draft 5.2 m.

Type: Tanker. MMSI: 236575000.

Date/timePositionNaut miles runAvg speedWind from/ knotsBaromVisibWave heightAir tempDewpointWater temp
2017-Nov-25 11:29N 28°08' W 015°25'0 0.0
2017-Nov-25 10:56N 28°08' W 015°25'0 0.0
2017-Nov-25 10:29N 28°08' W 015°25'0 0.2
2017-Nov-25 10:00N 28°08' W 015°25'2 4.4
2017-Nov-25 09:30N 28°06' W 015°24'0 0.1
2017-Nov-25 08:49N 28°06' W 015°24'0 0.1
2017-Nov-25 08:19N 28°06' W 015°24'0 0.2
2017-Nov-25 07:52N 28°06' W 015°24'0 0.0
2017-Nov-25 07:22N 28°06' W 015°24'0 0.0
2017-Nov-25 06:52N 28°06' W 015°24'0 0.0
2017-Nov-25 06:22N 28°06' W 015°24'0 0.1
2017-Nov-25 06:00N 28°06' W 015°24'0 0.0
2017-Nov-25 05:30N 28°06' W 015°24'0 0.1
2017-Nov-25 05:00N 28°06' W 015°24'2 4.2
2017-Nov-25 04:30N 28°08' W 015°25'0 0.0
2017-Nov-25 03:49N 28°08' W 015°25'0 0.0
2017-Nov-25 03:22N 28°08' W 015°25'0 0.0
2017-Nov-25 02:52N 28°08' W 015°25'0 0.0
2017-Nov-25 02:22N 28°08' W 015°25'0 0.0
2017-Nov-25 01:52N 28°08' W 015°25'0 0.0
2017-Nov-25 01:22N 28°08' W 015°25'0 0.0
2017-Nov-25 00:55N 28°08' W 015°25'0 0.0
2017-Nov-25 00:25N 28°08' W 015°25'0 0.0
2017-Nov-24 23:55N 28°08' W 015°25'0 0.0
2017-Nov-24 23:25N 28°08' W 015°25'0 0.0
2017-Nov-24 22:55N 28°08' W 015°25'0 0.0
2017-Nov-24 22:25N 28°08' W 015°25'0 0.0
2017-Nov-24 21:58N 28°08' W 015°25'0 0.0
2017-Nov-24 21:28N 28°08' W 015°25'0 0.0
2017-Nov-24 20:58N 28°08' W 015°25'1 2.5
2017-Nov-24 20:31N 28°07' W 015°25'3 5.1
2017-Nov-24 20:00N 28°10' W 015°23'0 0.0
2017-Nov-24 19:28N 28°10' W 015°23'0 0.0
2017-Nov-24 18:58N 28°10' W 015°23'0 0.0
2017-Nov-24 18:19N 28°10' W 015°23'0 0.1
2017-Nov-24 17:58N 28°10' W 015°24'0 0.1
2017-Nov-24 17:28N 28°10' W 015°23'0 0.0
2017-Nov-24 16:49N 28°10' W 015°23'0 0.0
2017-Nov-24 16:19N 28°10' W 015°23'0 0.0
2017-Nov-24 15:49N 28°10' W 015°23'0 0.0
2017-Nov-24 15:22N 28°10' W 015°23'0 0.0
2017-Nov-24 14:52N 28°10' W 015°23'0 0.0
2017-Nov-24 14:22N 28°10' W 015°24'0 0.0
2017-Nov-24 13:52N 28°10' W 015°24'0 0.0
2017-Nov-24 13:22N 28°10' W 015°24'0 0.0
2017-Nov-24 12:52N 28°10' W 015°24'0 0.0
2017-Nov-24 12:19N 28°10' W 015°24'0 0.0
2017-Nov-24 11:55N 28°10' W 015°24'0 0.0
2017-Nov-24 11:27N 28°10' W 015°24'0 0.0
2017-Nov-24 10:59N 28°10' W 015°24'1 1.6
2017-Nov-24 10:30N 28°09' W 015°24'3 5.7
2017-Nov-24 10:00N 28°06' W 015°24'0 0.0
2017-Nov-24 09:30N 28°06' W 015°24'0 0.0
2017-Nov-24 09:00N 28°06' W 015°24'0 0.0
2017-Nov-24 08:30N 28°06' W 015°24'0 0.1
2017-Nov-24 08:00N 28°06' W 015°24'0 0.1
2017-Nov-24 07:30N 28°06' W 015°24'0 0.2
2017-Nov-24 07:00N 28°06' W 015°24'0 0.1
2017-Nov-24 06:30N 28°06' W 015°24'0 0.1
2017-Nov-24 06:00N 28°06' W 015°24'0 0.1
2017-Nov-24 05:30N 28°06' W 015°24'3 5.2
2017-Nov-24 05:01N 28°08' W 015°25'0 0.2
2017-Nov-24 04:30N 28°08' W 015°25'0 0.0
2017-Nov-24 04:00N 28°08' W 015°25'0 0.0
2017-Nov-24 03:30N 28°08' W 015°25'0 0.0
2017-Nov-24 03:00N 28°08' W 015°25'0 0.0
2017-Nov-24 02:15N 28°08' W 015°25'0 0.0
2017-Nov-24 01:48N 28°08' W 015°25'0 0.0
2017-Nov-24 01:30N 28°08' W 015°25'0 0.0
2017-Nov-24 01:00N 28°08' W 015°25'0 0.0
2017-Nov-24 00:30N 28°08' W 015°25'0 0.0
2017-Nov-24 00:00N 28°08' W 015°25'0 0.0
2017-Nov-23 23:21N 28°08' W 015°25'0 0.0
2017-Nov-23 22:51N 28°08' W 015°25'0 0.0
2017-Nov-23 22:21N 28°08' W 015°25'0 0.0
2017-Nov-23 21:54N 28°08' W 015°25'0 0.0
2017-Nov-23 21:24N 28°08' W 015°25'0 0.0
2017-Nov-23 21:00N 28°08' W 015°25'2 4.7
2017-Nov-23 20:30N 28°06' W 015°24'0 0.0
2017-Nov-23 20:00N 28°06' W 015°24'0 0.0
2017-Nov-23 19:30N 28°06' W 015°24'0 0.1
2017-Nov-23 19:00N 28°06' W 015°24'0 0.0
2017-Nov-23 18:30N 28°06' W 015°24'0 0.0
2017-Nov-23 17:58N 28°06' W 015°24'0 0.0
2017-Nov-23 17:30N 28°06' W 015°24'0 0.0
2017-Nov-23 17:00N 28°06' W 015°24'0 0.0
2017-Nov-23 16:30N 28°06' W 015°24'1 2.5
2017-Nov-23 16:00N 28°07' W 015°25'1 3.0
2017-Nov-23 15:30N 28°09' W 015°25'0 0.0
2017-Nov-23 15:00N 28°09' W 015°25'0 0.0
2017-Nov-23 14:20N 28°09' W 015°25'0 0.0
2017-Nov-23 13:53N 28°09' W 015°25'0 0.0
2017-Nov-23 13:23N 28°09' W 015°25'0 0.0
2017-Nov-23 12:53N 28°09' W 015°25'0 0.0
2017-Nov-23 12:23N 28°09' W 015°25'0 0.0
2017-Nov-23 11:53N 28°09' W 015°25'0 0.0
2017-Nov-23 11:26N 28°09' W 015°25'0 0.0
2017-Nov-23 10:56N 28°09' W 015°25'0 0.0
2017-Nov-23 10:26N 28°09' W 015°25'0 0.0
2017-Nov-23 09:56N 28°09' W 015°25'0 0.0
2017-Nov-23 09:26N 28°09' W 015°25'0 0.0
2017-Nov-23 08:41N 28°09' W 015°25'0 0.0
2017-Nov-23 08:29N 28°09' W 015°25'0 0.6
2017-Nov-23 08:01N 28°08' W 015°25'1 2.6
2017-Nov-23 07:30N 28°07' W 015°25'0 0.9
2017-Nov-23 06:57N 28°07' W 015°24'0 0.1
2017-Nov-23 06:27N 28°07' W 015°24'0 0.1
2017-Nov-23 05:57N 28°07' W 015°24'0 0.1
2017-Nov-23 05:27N 28°07' W 015°24'0 0.0
2017-Nov-23 05:00N 28°07' W 015°24'0 0.1
2017-Nov-23 04:30N 28°07' W 015°24'0 0.1
2017-Nov-23 04:00N 28°07' W 015°24'0 0.0
2017-Nov-23 03:30N 28°07' W 015°24'0 0.0
2017-Nov-23 03:00N 28°07' W 015°24'0 0.0
2017-Nov-23 02:30N 28°07' W 015°24'0 0.0
2017-Nov-23 02:00N 28°07' W 015°24'0 0.1
2017-Nov-23 01:30N 28°07' W 015°24'0 0.3
2017-Nov-23 01:00N 28°07' W 015°24'2 4.0
2017-Nov-23 00:30N 28°09' W 015°25'0 0.0
2017-Nov-23 00:00N 28°09' W 015°25'0 0.0
2017-Nov-22 23:30N 28°09' W 015°25'0 0.0
2017-Nov-22 23:00N 28°09' W 015°25'0 0.0
2017-Nov-22 22:30N 28°09' W 015°25'0 0.0
2017-Nov-22 22:00N 28°09' W 015°25'0 0.0
2017-Nov-22 21:30N 28°09' W 015°25'0 0.0
2017-Nov-22 21:00N 28°09' W 015°25'0 0.0
2017-Nov-22 20:30N 28°09' W 015°25'0 0.0
2017-Nov-22 19:51N 28°09' W 015°25'0 0.0
2017-Nov-22 19:18N 28°09' W 015°25'  
2017-Nov-20 00:28N 28°08' W 015°25'0 0.0
2017-Nov-19 23:58N 28°08' W 015°25'0 0.0
2017-Nov-19 23:28N 28°08' W 015°25'0 0.0
2017-Nov-19 22:58N 28°08' W 015°25'0 0.0
2017-Nov-19 22:28N 28°08' W 015°25'0 0.0
2017-Nov-19 21:49N 28°08' W 015°25'0 0.0
2017-Nov-19 21:19N 28°08' W 015°25'0 0.0
2017-Nov-19 20:52N 28°08' W 015°25'0 0.0
2017-Nov-19 20:19N 28°08' W 015°25'0 0.0
2017-Nov-19 19:52N 28°08' W 015°25'0 0.0
2017-Nov-19 19:22N 28°08' W 015°25'0 0.0
2017-Nov-19 18:52N 28°08' W 015°25'0 0.0
2017-Nov-19 18:22N 28°08' W 015°25'0 0.0
2017-Nov-19 17:55N 28°08' W 015°25'0 0.0
2017-Nov-19 17:25N 28°08' W 015°25'0 0.0
2017-Nov-19 16:55N 28°08' W 015°25'0 0.0
2017-Nov-19 16:25N 28°08' W 015°25'0 0.0
2017-Nov-19 16:00N 28°08' W 015°25'1 2.6
2017-Nov-19 15:30N 28°08' W 015°24'1 1.7
2017-Nov-19 14:56N 28°09' W 015°24'0 0.0
2017-Nov-19 14:26N 28°09' W 015°24'0 0.0
2017-Nov-19 13:59N 28°09' W 015°24'0 0.0
2017-Nov-19 13:29N 28°09' W 015°24'0 0.0
2017-Nov-19 12:59N 28°09' W 015°24'0 0.0
2017-Nov-19 12:29N 28°09' W 015°24'0 0.0
2017-Nov-19 11:59N 28°09' W 015°24'0 0.0
2017-Nov-19 11:29N 28°09' W 015°24'0 0.0
2017-Nov-19 11:00N 28°09' W 015°24'2 4.1
2017-Nov-19 10:30N 28°07' W 015°25'1 2.1
2017-Nov-19 09:49N 28°09' W 015°25'0 0.0
2017-Nov-19 09:19N 28°09' W 015°25'0 0.0
2017-Nov-19 08:52N 28°09' W 015°25'0 0.0
2017-Nov-19 08:22N 28°09' W 015°25'0 0.0
2017-Nov-19 07:52N 28°09' W 015°25'0 0.0
2017-Nov-19 07:22N 28°09' W 015°25'0 0.0
2017-Nov-19 06:52N 28°09' W 015°25'0 0.0
2017-Nov-19 06:22N 28°09' W 015°25'0 0.0
2017-Nov-19 05:55N 28°09' W 015°25'0 0.0
2017-Nov-19 05:25N 28°09' W 015°25'0 0.0
2017-Nov-19 04:55N 28°09' W 015°25'0 0.0
2017-Nov-19 04:25N 28°09' W 015°25'0 0.0
2017-Nov-19 03:55N 28°09' W 015°25'0 0.0
2017-Nov-19 03:25N 28°09' W 015°25'0 0.0
2017-Nov-19 02:58N 28°09' W 015°25'0 0.0
2017-Nov-19 02:28N 28°09' W 015°25'0 0.0
2017-Nov-19 01:58N 28°09' W 015°25'0 0.0
2017-Nov-19 01:28N 28°09' W 015°25'0 0.0
2017-Nov-19 00:58N 28°09' W 015°25'0 0.0
2017-Nov-19 00:28N 28°09' W 015°25'0 0.0
2017-Nov-18 23:58N 28°09' W 015°25'0 0.0
2017-Nov-18 23:28N 28°09' W 015°25'0 0.0
2017-Nov-18 22:58N 28°09' W 015°25'0 0.0
2017-Nov-18 22:28N 28°09' W 015°25'0 0.0
2017-Nov-18 21:58N 28°09' W 015°25'0 0.0
2017-Nov-18 21:28N 28°09' W 015°25'0 0.0
2017-Nov-18 20:58N 28°09' W 015°25'0 0.0
2017-Nov-18 20:28N 28°09' W 015°25'0 0.0
2017-Nov-18 19:49N 28°09' W 015°25'0 0.0
2017-Nov-18 19:19N 28°09' W 015°25'0 0.0
2017-Nov-18 18:49N 28°09' W 015°25'0 0.0
2017-Nov-18 18:22N 28°09' W 015°25'0 0.0
2017-Nov-18 17:52N 28°09' W 015°25'0 0.0
2017-Nov-18 17:22N 28°09' W 015°25'0 0.0
2017-Nov-18 16:52N 28°09' W 015°25'0 0.0
2017-Nov-18 16:22N 28°09' W 015°25'0 0.0
2017-Nov-18 15:52N 28°09' W 015°25'0 0.0
2017-Nov-18 15:25N 28°09' W 015°25'0 0.0
2017-Nov-18 14:55N 28°09' W 015°25'0 0.0
2017-Nov-18 14:25N 28°09' W 015°25'0 0.0
2017-Nov-18 14:00N 28°09' W 015°25'0 0.9
2017-Nov-18 13:30N 28°08' W 015°25'0 0.0
2017-Nov-18 12:57N 28°08' W 015°25'0 0.0
2017-Nov-18 12:30N 28°08' W 015°25'0 0.0
2017-Nov-18 11:57N 28°08' W 015°25'0 0.0
2017-Nov-18 11:27N 28°08' W 015°25'1 3.1
2017-Nov-18 11:00N 28°07' W 015°24'1 1.6
2017-Nov-18 10:28N 28°08' W 015°24'0 0.0
2017-Nov-18 09:58N 28°08' W 015°24'0 0.0
2017-Nov-18 09:13N 28°08' W 015°24'0 0.0
2017-Nov-18 08:58N 28°08' W 015°24'0 0.0
2017-Nov-18 08:13N 28°08' W 015°24'0 0.0
2017-Nov-18 07:58N 28°08' W 015°24'0 0.0
2017-Nov-18 07:28N 28°08' W 015°24'0 0.0
2017-Nov-18 06:58N 28°08' W 015°24'0 0.1
2017-Nov-18 06:28N 28°08' W 015°24'0 0.0
2017-Nov-18 05:46N 28°08' W 015°24'0 0.0
2017-Nov-18 05:19N 28°08' W 015°24'0 0.0
2017-Nov-18 04:46N 28°08' W 015°24'0 0.0
2017-Nov-18 04:22N 28°08' W 015°24'0 0.0
2017-Nov-18 03:56N 28°08' W 015°24'1 1.9
2017-Nov-18 03:30N 28°07' W 015°24'1 2.7
2017-Nov-18 03:00N 28°08' W 015°25'0 0.0
2017-Nov-18 02:30N 28°08' W 015°25'0 0.0
2017-Nov-18 02:00N 28°08' W 015°25'0 0.0
2017-Nov-18 01:30N 28°08' W 015°25'0 0.0
2017-Nov-18 01:00N 28°08' W 015°25'0 0.0
2017-Nov-18 00:30N 28°08' W 015°25'0 0.0
2017-Nov-18 00:00N 28°08' W 015°25'0 0.0
2017-Nov-17 23:30N 28°08' W 015°25'0 0.0
2017-Nov-17 23:00N 28°08' W 015°25'0 0.0
2017-Nov-17 22:30N 28°08' W 015°25'0 0.0
2017-Nov-17 22:00N 28°08' W 015°25'0 0.0
2017-Nov-17 21:18N 28°08' W 015°25'0 0.0
2017-Nov-17 20:48N 28°08' W 015°25'0 0.0
2017-Nov-17 20:21N 28°08' W 015°25'0 0.0
2017-Nov-17 19:54N 28°08' W 015°25'0 0.0
2017-Nov-17 19:24N 28°08' W 015°25'0 0.0
2017-Nov-17 18:56N 28°08' W 015°25'1 1.8
2017-Nov-17 18:30N 28°07' W 015°25'1 2.1
2017-Nov-17 18:01N 28°07' W 015°24'0 0.1
2017-Nov-17 17:31N 28°07' W 015°24'0 0.0
2017-Nov-17 17:01N 28°07' W 015°24'0 0.0
2017-Nov-17 16:31N 28°07' W 015°24'0 0.1
2017-Nov-17 16:01N 28°07' W 015°24'0 0.0
2017-Nov-17 15:31N 28°07' W 015°24'0 0.0
2017-Nov-17 15:01N 28°07' W 015°24'0 0.0
2017-Nov-17 14:31N 28°07' W 015°24'0 0.1
2017-Nov-17 14:01N 28°07' W 015°24'0 0.0
2017-Nov-17 13:22N 28°07' W 015°24'0 0.0
2017-Nov-17 12:52N 28°07' W 015°24'0 0.0
2017-Nov-17 12:22N 28°07' W 015°24'0 0.0
2017-Nov-17 11:55N 28°07' W 015°24'0 0.1
2017-Nov-17 11:30N 28°07' W 015°24'2 3.9
2017-Nov-17 11:00N 28°09' W 015°25'0 0.1
2017-Nov-17 10:29N 28°09' W 015°25'0 0.0
2017-Nov-17 09:59N 28°09' W 015°25'0 0.0
2017-Nov-17 09:29N 28°09' W 015°25'0 0.0
2017-Nov-17 08:59N 28°09' W 015°25'0 0.0
2017-Nov-17 08:20N 28°09' W 015°25'0 0.0
2017-Nov-17 07:50N 28°09' W 015°25'0 0.0
2017-Nov-17 07:20N 28°09' W 015°25'0 0.0
2017-Nov-17 06:53N 28°09' W 015°25'0 0.0
2017-Nov-17 06:23N 28°09' W 015°25'0 0.0
2017-Nov-17 05:53N 28°09' W 015°25'0 0.0
2017-Nov-17 05:23N 28°09' W 015°25'0 0.0
2017-Nov-17 04:53N 28°09' W 015°25'0 0.0
2017-Nov-17 04:23N 28°09' W 015°25'0 0.0
2017-Nov-17 03:56N 28°09' W 015°25'0 0.0
2017-Nov-17 03:26N 28°09' W 015°25'0 0.0
2017-Nov-17 02:56N 28°09' W 015°25'0 0.0
2017-Nov-17 02:26N 28°09' W 015°25'0 0.0
2017-Nov-17 01:56N 28°09' W 015°25'0 0.0
2017-Nov-17 01:26N 28°09' W 015°25'0 0.0
2017-Nov-17 00:59N 28°09' W 015°25'0 0.0
2017-Nov-17 00:29N 28°09' W 015°25'0 0.0
2017-Nov-16 23:59N 28°09' W 015°25'0 0.0
2017-Nov-16 23:29N 28°09' W 015°25'0 0.0
2017-Nov-16 22:59N 28°09' W 015°25'0 0.0
2017-Nov-16 22:29N 28°09' W 015°25'0 0.0
2017-Nov-16 21:59N 28°09' W 015°25'0 0.0
2017-Nov-16 21:29N 28°09' W 015°25'0 0.0
2017-Nov-16 20:59N 28°09' W 015°25'0 0.0
2017-Nov-16 20:29N 28°09' W 015°25'0 0.0
2017-Nov-16 19:59N 28°09' W 015°25'0 0.0
2017-Nov-16 19:20N 28°09' W 015°25'0 0.0
2017-Nov-16 18:59N 28°09' W 015°25'0 0.0
2017-Nov-16 18:29N 28°09' W 015°25'0 0.0
2017-Nov-16 17:50N 28°09' W 015°25'0 0.0
2017-Nov-16 17:20N 28°09' W 015°25'0 0.0
2017-Nov-16 16:50N 28°09' W 015°25'0 0.0
2017-Nov-16 16:23N 28°09' W 015°25'0 0.0
2017-Nov-16 15:53N 28°09' W 015°25'0 0.0
2017-Nov-16 15:23N 28°09' W 015°25'0 0.0
2017-Nov-16 14:53N 28°09' W 015°25'0 0.0
2017-Nov-16 14:23N 28°09' W 015°25'0 0.0
2017-Nov-16 13:56N 28°09' W 015°25'0 0.0
2017-Nov-16 13:23N 28°09' W 015°25'0 0.0
2017-Nov-16 12:56N 28°09' W 015°25'0 0.0
2017-Nov-16 12:26N 28°09' W 015°25'0 0.0
2017-Nov-16 11:56N 28°09' W 015°25'0 0.0
2017-Nov-16 11:26N 28°09' W 015°25'0 0.0
2017-Nov-16 10:59N 28°09' W 015°25'0 0.7
2017-Nov-16 10:21N 28°08' W 015°25'0 0.0
2017-Nov-16 09:54N 28°08' W 015°25'0 0.0
2017-Nov-16 09:24N 28°08' W 015°25'0 0.0
2017-Nov-16 08:54N 28°08' W 015°25'0 0.0
2017-Nov-16 08:24N 28°08' W 015°25'0 0.0
2017-Nov-16 07:54N 28°08' W 015°25'0 0.0
2017-Nov-16 07:24N 28°08' W 015°25'0 0.0
2017-Nov-16 06:57N 28°08' W 015°25'0 0.0
2017-Nov-16 06:27N 28°08' W 015°25'0 0.0
2017-Nov-16 05:57N 28°08' W 015°25'0 0.0
2017-Nov-16 05:27N 28°08' W 015°25'0 0.0
2017-Nov-16 04:57N 28°08' W 015°25'0 0.0
2017-Nov-16 04:27N 28°08' W 015°25'0 0.0
2017-Nov-16 03:57N 28°08' W 015°25'0 0.0
2017-Nov-16 03:30N 28°08' W 015°25'0 0.0
2017-Nov-16 02:57N 28°08' W 015°25'0 0.0
2017-Nov-16 02:30N 28°08' W 015°25'0 0.0
2017-Nov-16 02:00N 28°08' W 015°25'0 0.0
2017-Nov-16 01:30N 28°08' W 015°25'0 0.0
2017-Nov-16 01:00N 28°08' W 015°25'0 0.0
2017-Nov-16 00:27N 28°08' W 015°25'0 0.0
2017-Nov-16 00:00N 28°08' W 015°25'0 0.0
2017-Nov-15 23:30N 28°08' W 015°25'0 0.0
2017-Nov-15 23:00N 28°08' W 015°25'0 0.0
2017-Nov-15 22:30N 28°08' W 015°25'0 0.0
2017-Nov-15 22:00N 28°08' W 015°25'0 0.0
2017-Nov-15 21:30N 28°08' W 015°25'0 0.0
2017-Nov-15 20:36N 28°08' W 015°25'0 0.0
2017-Nov-15 20:21N 28°08' W 015°25'0 0.0
2017-Nov-15 19:51N 28°08' W 015°25'0 0.0
2017-Nov-15 19:24N 28°08' W 015°25'0 0.0
2017-Nov-15 18:51N 28°08' W 015°25'0 0.0
2017-Nov-15 18:24N 28°08' W 015°25'0 0.0
2017-Nov-15 17:54N 28°08' W 015°25'0 0.0
2017-Nov-15 17:21N 28°08' W 015°25'0 0.0
2017-Nov-15 16:54N 28°08' W 015°25'0 0.0
2017-Nov-15 16:27N 28°08' W 015°25'0 0.0
2017-Nov-15 15:57N 28°08' W 015°25'0 0.0
2017-Nov-15 15:27N 28°08' W 015°25'0 0.0
2017-Nov-15 14:57N 28°08' W 015°25'0 0.0
2017-Nov-15 14:27N 28°08' W 015°25'0 0.0
2017-Nov-15 13:57N 28°08' W 015°25'0 0.0
2017-Nov-15 13:30N 28°08' W 015°25'0 0.0
2017-Nov-15 13:00N 28°08' W 015°25'0 0.0
2017-Nov-15 12:30N 28°08' W 015°25'0 0.0
2017-Nov-15 12:00N 28°08' W 015°25'  

Dump ship's entire track history